Time;durP1;ratioP1;P1;durP2;ratioP2;P2;SDS_P1;SDS_P2;PMS_P1;PMS_P2;Temp;Humidity;BMP_temperature;BMP_pressure;BME280_temperature;BME280_humidity;BME280_pressure;Samples;Min_cycle;Max_cycle;Signal;HPM_P1;HPM_P2
2022/09/20 00:01:04;;;;;;;3.88;1.90;;;;;;;8.77;100.00;100102.75;6287307;22;20470;-78
2022/09/20 00:03:30;;;;;;;4.07;2.00;;;;;;;8.69;100.00;100106.84;6337611;22;20391;-78
2022/09/20 00:05:59;;;;;;;5.38;2.15;;;;;;;8.57;100.00;100099.19;6335014;22;20007;-77
2022/09/20 00:08:25;;;;;;;3.38;2.35;;;;;;;8.50;100.00;100097.28;6282277;22;20409;-77
2022/09/20 00:10:52;;;;;;;4.07;2.20;;;;;;;8.40;100.00;100101.03;6308239;22;20042;-78
2022/09/20 00:13:17;;;;;;;3.75;2.08;;;;;;;8.36;100.00;100101.09;6342643;22;20027;-92
2022/09/20 00:15:44;;;;;;;3.70;2.05;;;;;;;8.40;100.00;100101.03;6356698;22;20007;-78
2022/09/20 00:18:10;;;;;;;2.80;2.10;;;;;;;8.39;100.00;100094.72;6335801;22;20340;-78
2022/09/20 00:20:43;;;;;;;3.15;1.80;;;;;;;8.37;100.00;100088.81;6335613;22;20003;-78
2022/09/20 00:23:08;;;;;;;3.35;2.08;;;;;;;8.23;100.00;100086.28;6334632;22;20512;-77
2022/09/20 00:25:34;;;;;;;3.33;1.85;;;;;;;8.18;100.00;100086.75;6335418;22;20005;-78
2022/09/20 00:28:00;;;;;;;3.58;2.10;;;;;;;8.24;100.00;100087.84;6335259;22;20015;-78
2022/09/20 00:30:25;;;;;;;3.72;2.00;;;;;;;8.25;100.00;100089.38;6335781;22;20342;-78
2022/09/20 00:32:51;;;;;;;3.70;2.03;;;;;;;8.19;100.00;100082.00;6335343;22;20464;-92
2022/09/20 00:35:16;;;;;;;3.80;1.70;;;;;;;8.22;100.00;100073.66;6307327;22;20015;-77
2022/09/20 00:37:42;;;;;;;3.08;1.83;;;;;;;8.21;100.00;100085.91;6307344;22;20039;-78
2022/09/20 00:40:12;;;;;;;2.50;1.70;;;;;;;8.27;100.00;100091.75;6336193;22;20003;-78
2022/09/20 00:42:38;;;;;;;3.10;1.70;;;;;;;8.25;100.00;100088.63;6308103;22;20379;-78
2022/09/20 00:45:29;;;;;;;3.55;1.77;;;;;;;8.15;100.00;100084.06;6334394;22;20015;-77
2022/09/20 00:48:11;;;;;;;3.25;2.30;;;;;;;8.06;100.00;100083.78;6275890;22;20097;-77
2022/09/20 00:50:41;;;;;;;3.42;2.08;;;;;;;8.04;100.00;100092.50;6307451;22;20448;-78
2022/09/20 00:53:25;;;;;;;3.75;2.13;;;;;;;8.00;100.00;100094.56;6306859;22;20341;-91
2022/09/20 00:56:00;;;;;;;3.67;2.30;;;;;;;7.94;100.00;100091.47;6307806;22;20019;-78
2022/09/20 00:58:27;;;;;;;3.63;2.10;;;;;;;7.90;100.00;100089.97;6307355;22;20508;-77
2022/09/20 01:03:38;;;;;;;3.35;1.92;;;;;;;7.80;100.00;100074.34;6329835;22;20046;-92
2022/09/20 01:06:07;;;;;;;3.55;2.15;;;;;;;7.92;100.00;100090.34;6303978;22;20011;-94
2022/09/20 01:08:33;;;;;;;3.92;2.40;;;;;;;7.95;100.00;100086.72;6328309;22;20396;-91
2022/09/20 01:10:59;;;;;;;2.70;2.00;;;;;;;7.94;100.00;100085.16;6325156;22;19999;-89
2022/09/20 01:13:24;;;;;;;3.05;2.17;;;;;;;7.95;100.00;100081.22;6310167;22;20007;-91
2022/09/20 01:15:50;;;;;;;3.47;2.30;;;;;;;7.94;100.00;100085.16;6336109;22;20007;-92
2022/09/20 01:18:17;;;;;;;3.85;1.80;;;;;;;7.92;100.00;100076.53;6291663;22;20159;-91
2022/09/20 01:20:44;;;;;;;2.75;1.90;;;;;;;7.94;100.00;100079.63;6332108;22;20055;-93
2022/09/20 01:23:31;;;;;;;3.60;1.90;;;;;;;7.92;100.00;100090.34;6308001;22;20007;-77
2022/09/20 01:26:24;;;;;;;2.65;1.98;;;;;;;7.92;100.00;100087.56;6336701;22;20015;-77
2022/09/20 01:29:00;;;;;;;2.60;1.70;;;;;;;7.96;100.00;100099.34;6336360;22;20417;-78
2022/09/20 01:31:30;;;;;;;3.42;1.90;;;;;;;7.97;100.00;100089.84;6308165;22;20022;-77
2022/09/20 01:34:11;;;;;;;2.95;1.90;;;;;;;7.96;100.00;100089.09;6308728;22;20082;-77
2022/09/20 01:36:43;;;;;;;5.00;2.15;;;;;;;7.79;100.00;100092.09;6335658;22;20448;-77
2022/09/20 01:39:42;;;;;;;4.80;2.40;;;;;;;7.64;100.00;100088.78;6336667;22;20011;-92
2022/09/20 01:42:09;;;;;;;3.35;2.28;;;;;;;7.64;100.00;100087.97;6335663;22;20280;-78
2022/09/20 01:44:47;;;;;;;4.60;1.90;;;;;;;7.68;100.00;100095.03;6309047;22;19995;-77
2022/09/20 01:47:34;;;;;;;3.67;1.73;;;;;;;7.78;100.00;100093.28;6335319;22;20155;-78
2022/09/20 01:50:38;;;;;;;1.48;1.08;;;;;;;7.83;100.00;100084.53;6307214;22;20086;-78
2022/09/20 01:53:23;;;;;;;1.20;1.02;;;;;;;7.86;100.00;100089.22;6333666;22;20017;-78
2022/09/20 01:56:23;;;;;;;2.30;1.13;;;;;;;7.91;100.00;100092.31;6335154;22;20049;-78
2022/09/20 01:59:32;;;;;;;2.97;1.45;;;;;;;7.86;100.00;100089.22;6336010;22;20007;-93
2022/09/20 02:02:18;;;;;;;2.30;1.67;;;;;;;7.88;100.00;100086.84;6286316;22;20098;-78
2022/09/20 02:05:10;;;;;;;2.53;1.77;;;;;;;7.78;100.00;100083.03;6334804;22;20356;-78
2022/09/20 02:07:49;;;;;;;2.38;1.70;;;;;;;7.73;100.00;100082.72;6328620;22;20024;-77
2022/09/20 02:10:44;;;;;;;2.92;1.80;;;;;;;7.71;100.00;100085.13;6334418;22;20428;-77
2022/09/20 02:13:44;;;;;;;4.47;1.65;;;;;;;7.67;100.00;100082.41;6316242;22;20444;-78
2022/09/20 02:16:31;;;;;;;2.97;1.50;;;;;;;7.61;100.00;100083.28;6336430;22;20015;-78
2022/09/20 02:19:08;;;;;;;2.65;1.67;;;;;;;7.60;100.00;100090.00;6334206;22;20432;-77
2022/09/20 02:21:36;;;;;;;2.85;1.48;;;;;;;7.68;100.00;100095.03;6334832;22;20010;-77
2022/09/20 02:24:26;;;;;;;2.45;1.63;;;;;;;7.73;100.00;100093.75;6334145;22;20336;-78
2022/09/20 02:27:13;;;;;;;2.53;1.63;;;;;;;7.70;100.00;100089.06;6335014;22;20436;-78
2022/09/20 02:30:00;;;;;;;5.78;1.75;;;;;;;7.45;100.00;100092.94;6335313;22;20019;-77
2022/09/20 02:32:49;;;;;;;6.03;1.63;;;;;;;7.43;100.00;100089.06;6286290;22;20526;-78
2022/09/20 02:35:15;;;;;;;3.28;1.58;;;;;;;7.44;100.00;100094.13;6307754;22;20011;-78
2022/09/20 02:38:28;;;;;;;1.73;1.33;;;;;;;7.55;100.00;100096.00;6335003;22;20013;-93
2022/09/20 02:41:42;;;;;;;4.10;1.40;;;;;;;7.61;100.00;100086.03;6320697;22;20068;-92
2022/09/20 02:44:38;;;;;;;3.67;1.30;;;;;;;7.66;100.00;100100.16;6321438;22;20094;-94
2022/09/20 02:47:12;;;;;;;1.67;1.23;;;;;;;7.69;100.00;100081.97;6336389;22;20014;-94
2022/09/20 02:49:51;;;;;;;1.75;1.10;;;;;;;7.74;100.00;100098.09;6336219;22;20046;-93
2022/09/20 02:52:42;;;;;;;1.42;1.20;;;;;;;7.85;100.00;100090.41;6282523;22;20201;-91
2022/09/20 02:55:16;;;;;;;2.15;1.30;;;;;;;7.97;100.00;100092.59;6334339;22;20019;-93
2022/09/20 02:58:00;;;;;;;1.75;1.10;;;;;;;8.06;100.00;100092.88;6308264;22;20033;-92
2022/09/20 03:00:33;;;;;;;3.53;1.55;;;;;;;8.11;100.00;100092.41;6335764;22;20018;-92
2022/09/20 03:03:17;;;;;;;1.13;0.93;;;;;;;8.12;100.00;100082.91;6336140;22;20014;-92
2022/09/20 03:06:20;;;;;;;1.77;1.10;;;;;;;8.18;100.00;100091.50;6306839;22;20515;-93
2022/09/20 03:09:12;;;;;;;1.83;1.20;;;;;;;8.23;100.00;100072.47;6308198;22;20011;-93
2022/09/20 03:12:35;;;;;;;2.13;1.27;;;;;;;8.33;100.00;100085.34;6308532;22;20014;-91
2022/09/20 03:15:19;;;;;;;2.58;1.02;;;;;;;8.38;100.00;100098.69;6179112;23;20023;-90
2022/09/20 03:18:07;;;;;;;2.38;1.20;;;;;;;8.37;100.00;100097.13;6307433;22;20072;-91
2022/09/20 03:21:01;;;;;;;1.90;1.23;;;;;;;8.32;100.00;100096.81;6307605;22;20011;-92
2022/09/20 03:23:39;;;;;;;1.23;0.90;;;;;;;8.31;100.00;100098.03;6334519;22;20018;-91
2022/09/20 03:26:13;;;;;;;1.17;1.00;;;;;;;8.35;100.00;100104.28;6306606;22;20140;-92
2022/09/20 03:29:00;;;;;;;1.92;1.25;;;;;;;8.19;100.00;100107.66;6335664;22;20010;-92
2022/09/20 03:31:56;;;;;;;2.75;1.13;;;;;;;8.18;100.00;100095.03;6306657;22;20019;-92
2022/09/20 03:34:38;;;;;;;2.03;1.02;;;;;;;8.15;100.00;100089.56;6335577;22;20011;-77
2022/09/20 03:37:19;;;;;;;1.35;1.08;;;;;;;8.13;100.00;100092.75;6282395;22;20394;-77
2022/09/20 03:39:55;;;;;;;2.25;1.35;;;;;;;8.22;100.00;100094.97;6335253;22;20015;-77
2022/09/20 03:42:47;;;;;;;0.90;0.90;;;;;;;8.33;100.00;100090.88;6308328;22;20046;-77
2022/09/20 03:45:38;;;;;;;4.03;1.23;;;;;;;8.44;100.00;100090.69;6334980;22;20017;-77
2022/09/20 03:48:42;;;;;;;5.35;1.40;;;;;;;8.46;100.00;100104.09;6336572;22;20517;-77
2022/09/20 03:51:44;;;;;;;1.88;1.20;;;;;;;8.47;100.00;100089.06;6335016;22;20046;-77
2022/09/20 03:54:38;;;;;;;1.40;0.90;;;;;;;8.49;100.00;100092.22;6335318;22;20010;-91
2022/09/20 03:57:38;;;;;;;2.50;0.93;;;;;;;8.46;100.00;100093.81;6336534;22;20036;-93
2022/09/20 04:00:21;;;;;;;4.07;1.05;;;;;;;8.47;100.00;100097.38;6335097;22;20455;-92
2022/09/20 04:03:02;;;;;;;1.50;1.10;;;;;;;8.43;100.00;100087.16;6309201;22;20520;-92
2022/09/20 04:05:37;;;;;;;2.72;1.00;;;;;;;8.43;100.00;100089.91;6308687;22;20014;-93
2022/09/20 04:08:29;;;;;;;1.38;1.00;;;;;;;8.48;100.00;100091.41;6308497;22;20019;-90
2022/09/20 04:11:31;;;;;;;2.35;0.77;;;;;;;8.55;100.00;100087.75;6307829;22;20015;-91
2022/09/20 04:13:59;;;;;;;1.33;0.93;;;;;;;8.59;100.00;100085.69;6130288;23;20025;-92
2022/09/20 04:16:39;;;;;;;1.85;1.08;;;;;;;8.57;100.00;100077.06;6308135;22;20536;-91
2022/09/20 04:19:28;;;;;;;1.60;1.00;;;;;;;8.60;100.00;100081.72;6308252;22;20036;-90
2022/09/20 04:21:59;;;;;;;1.95;1.10;;;;;;;8.62;100.00;100079.31;6282875;22;20015;-90
2022/09/20 04:24:27;;;;;;;4.22;1.38;;;;;;;8.64;100.00;100083.22;6335362;22;20444;-91
2022/09/20 04:26:59;;;;;;;2.03;1.35;;;;;;;8.65;100.00;100078.50;6337451;22;20014;-91
2022/09/20 04:29:52;;;;;;;1.60;1.00;;;;;;;8.63;100.00;100075.34;6282307;22;20312;-78
2022/09/20 04:32:17;;;;;;;2.22;1.30;;;;;;;8.62;100.00;100090.38;6308906;22;20017;-76
2022/09/20 04:37:38;;;;;;;2.15;1.08;;;;;;;8.48;100.00;100087.88;6312765;22;20014;-80
2022/09/20 04:40:19;;;;;;;3.72;1.20;;;;;;;8.40;100.00;100099.06;6331686;22;20022;-79
2022/09/20 04:43:06;;;;;;;2.45;1.25;;;;;;;8.30;100.00;100100.00;6333585;22;20015;-79
2022/09/20 04:45:51;;;;;;;2.63;1.42;;;;;;;8.31;100.00;100103.56;6334507;22;20015;-77
2022/09/20 04:48:45;;;;;;;3.05;1.40;;;;;;;8.29;100.00;100101.19;6306357;22;20015;-89
2022/09/20 04:51:26;;;;;;;3.22;1.85;;;;;;;8.25;100.00;100105.97;6333976;22;20317;-77
2022/09/20 04:54:25;;;;;;;4.10;1.40;;;;;;;8.21;100.00;100104.50;6334389;22;20011;-77
2022/09/20 04:57:23;;;;;;;3.08;1.30;;;;;;;8.13;100.00;100092.75;6335004;22;20492;-77
2022/09/20 05:00:10;;;;;;;2.58;1.10;;;;;;;8.13;100.00;100097.50;6313099;22;20007;-78
2022/09/20 05:03:13;;;;;;;5.13;1.30;;;;;;;8.16;100.00;100085.63;6283575;22;20018;-78
2022/09/20 05:06:14;;;;;;;3.63;1.23;;;;;;;8.17;100.00;100109.28;6336474;22;20018;-78
2022/09/20 05:08:48;;;;;;;3.83;1.52;;;;;;;8.21;100.00;100105.25;6335858;22;20022;-78
2022/09/20 05:11:20;;;;;;;2.67;1.60;;;;;;;8.17;100.00;100095.47;6336434;22;20039;-89
2022/09/20 05:13:48;;;;;;;2.03;1.45;;;;;;;8.15;100.00;100101.41;6334217;22;20031;-89
2022/09/20 05:16:26;;;;;;;3.00;1.85;;;;;;;8.13;100.00;100089.97;6335828;22;20015;-88
2022/09/20 05:19:09;;;;;;;3.97;2.50;;;;;;;8.08;100.00;100093.25;6309142;22;20085;-89
2022/09/20 05:21:45;;;;;;;3.10;2.10;;;;;;;8.12;100.00;100095.94;6310254;22;20011;-88
2022/09/20 05:24:51;;;;;;;2.08;1.60;;;;;;;8.15;100.00;100101.41;6305691;22;20602;-89
2022/09/20 05:27:21;;;;;;;2.60;1.85;;;;;;;8.24;100.00;100109.97;6306330;22;20402;-78
2022/09/20 05:29:56;;;;;;;2.90;1.60;;;;;;;8.29;100.00;100112.25;6336506;22;20735;-78
2022/09/20 05:32:23;;;;;;;5.18;3.10;;;;;;;8.41;100.00;100119.94;6283452;22;20018;-78
2022/09/20 05:34:58;;;;;;;3.00;2.15;;;;;;;8.41;100.00;100113.66;6307941;22;20025;-78
2022/09/20 05:37:45;;;;;;;4.50;2.03;;;;;;;8.51;100.00;100117.44;6336574;22;20337;-78
2022/09/20 05:40:38;;;;;;;3.70;2.20;;;;;;;8.57;100.00;100121.28;6334848;22;20097;-78
2022/09/20 05:43:10;;;;;;;6.88;2.70;;;;;;;8.66;100.00;100122.28;6309170;22;20089;-78
2022/09/20 05:45:47;;;;;;;5.23;2.67;;;;;;;8.76;100.00;100112.25;6336479;22;20010;-78
2022/09/20 05:48:23;;;;;;;3.72;2.10;;;;;;;8.84;100.00;100120.00;6308509;22;20014;-88
2022/09/20 05:50:59;;;;;;;3.88;2.40;;;;;;;8.97;100.00;100122.94;6334884;22;20152;-88
2022/09/20 05:53:34;;;;;;;4.38;2.45;;;;;;;9.11;100.00;100121.84;6307191;22;20808;-89
2022/09/20 05:56:20;;;;;;;5.47;2.30;;;;;;;9.27;100.00;100124.72;6333786;22;20011;-88
2022/09/20 05:59:01;;;;;;;6.03;2.88;;;;;;;9.45;100.00;100127.13;6281039;22;20508;-87
2022/09/20 06:01:41;;;;;;;5.90;2.60;;;;;;;9.77;100.00;100114.16;6336112;22;20102;-88
2022/09/20 06:04:23;;;;;;;5.53;2.83;;;;;;;10.14;100.00;100115.69;6282758;22;20349;-87
2022/09/20 06:07:08;;;;;;;4.53;2.80;;;;;;;10.52;100.00;100110.41;6335465;22;20395;-88
2022/09/20 06:10:12;;;;;;;6.47;3.00;;;;;;;10.85;100.00;100122.25;6333042;22;20015;-77
2022/09/20 06:12:54;;;;;;;10.20;3.08;;;;;;;11.13;100.00;100115.13;6206588;22;20019;-77
2022/09/20 06:15:40;;;;;;;7.32;2.83;;;;;;;11.44;100.00;100118.25;6306659;22;20495;-77
2022/09/20 06:18:14;;;;;;;6.68;2.80;;;;;;;11.72;100.00;100114.66;6307054;22;20413;-77
2022/09/20 06:20:56;;;;;;;8.80;2.70;;;;;;;11.46;100.00;100118.56;6334530;22;20017;-77
2022/09/20 06:23:22;;;;;;;7.32;2.47;;;;;;;11.43;100.00;100119.47;6306939;22;20468;-78
2022/09/20 06:25:56;;;;;;;3.55;1.85;;;;;;;11.51;91.97;100126.38;6307920;22;20030;-89
2022/09/20 06:28:29;;;;;;;4.32;1.60;;;;;;;11.57;94.07;100130.16;6308689;22;20014;-78
2022/09/20 06:30:54;;;;;;;3.72;1.70;;;;;;;11.54;100.00;100120.72;6283404;22;20038;-78
2022/09/20 06:33:22;;;;;;;3.00;1.90;;;;;;;11.75;100.00;100122.09;6282737;22;20014;-78
2022/09/20 06:35:51;;;;;;;2.13;1.40;;;;;;;12.12;94.98;100126.91;6309811;22;20021;-78
2022/09/20 06:41:27;;;;;;;1.45;1.10;;;;;;;12.50;93.14;100117.72;6335899;22;20084;-78
2022/09/20 06:44:00;;;;;;;1.17;0.90;;;;;;;12.56;88.99;100118.72;6336480;22;20011;-78
2022/09/20 06:46:30;;;;;;;4.13;1.90;;;;;;;12.59;92.57;100123.41;6309382;22;20061;-88
2022/09/20 06:48:56;;;;;;;7.38;2.28;;;;;;;12.63;94.30;100121.28;6308903;22;20261;-89
2022/09/20 06:51:22;;;;;;;4.22;2.28;;;;;;;12.84;95.89;100128.13;6336442;22;20009;-86
2022/09/20 06:53:48;;;;;;;7.50;2.40;;;;;;;12.91;94.06;100125.88;6308999;22;20463;-87
2022/09/20 06:56:17;;;;;;;3.35;1.60;;;;;;;12.91;93.82;100123.09;6308555;22;20004;-87
2022/09/20 06:58:43;;;;;;;3.60;1.35;;;;;;;12.91;93.82;100130.66;6309201;22;20007;-87
2022/09/20 07:01:08;;;;;;;3.13;1.90;;;;;;;12.95;94.03;100129.31;6308685;22;20052;-87
2022/09/20 07:03:34;;;;;;;2.47;1.40;;;;;;;13.05;93.95;100135.75;6336174;22;20053;-76
2022/09/20 07:05:59;;;;;;;1.70;1.10;;;;;;;13.17;92.37;100148.09;6309487;22;20053;-89
2022/09/20 07:08:26;;;;;;;1.30;1.13;;;;;;;13.00;87.81;100139.88;6308387;22;20588;-89
2022/09/20 07:10:51;;;;;;;1.23;0.88;;;;;;;13.02;87.24;100156.88;6309071;22;20011;-89
2022/09/20 07:13:19;;;;;;;1.73;1.08;;;;;;;12.84;86.32;100167.88;6336399;22;20021;-88
2022/09/20 07:15:45;;;;;;;1.60;0.98;;;;;;;12.87;85.34;100169.75;6336687;22;20003;-89
2022/09/20 07:18:10;;;;;;;0.85;0.80;;;;;;;12.84;85.03;100176.22;6309023;22;20011;-89
2022/09/20 07:20:36;;;;;;;1.23;1.00;;;;;;;12.78;84.51;100177.25;6336176;22;20013;-88
2022/09/20 07:23:01;;;;;;;2.25;1.10;;;;;;;12.67;85.68;100183.16;6334814;22;20069;-88
2022/09/20 07:25:27;;;;;;;2.28;1.05;;;;;;;12.76;85.69;100177.69;6334512;22;20015;-77
2022/09/20 07:27:52;;;;;;;1.42;0.95;;;;;;;12.89;84.74;100181.22;6307147;22;20043;-78
2022/09/20 07:30:18;;;;;;;3.10;0.90;;;;;;;12.88;84.41;100182.44;6334557;22;20136;-78
2022/09/20 07:32:44;;;;;;;1.20;1.10;;;;;;;12.95;84.78;100182.22;6334708;22;20013;-78
2022/09/20 07:35:10;;;;;;;1.48;1.10;;;;;;;13.06;84.57;100184.66;6334710;22;20500;-77
2022/09/20 07:37:36;;;;;;;1.67;0.90;;;;;;;13.18;85.02;100191.44;6307460;22;20094;-78
2022/09/20 07:40:04;;;;;;;3.38;1.10;;;;;;;13.15;84.79;100195.09;6336304;22;20080;-77
2022/09/20 07:42:30;;;;;;;1.00;0.90;;;;;;;12.97;85.78;100196.47;6335846;22;20317;-90
2022/09/20 07:44:55;;;;;;;2.60;1.10;;;;;;;12.68;86.55;100187.50;6336624;22;20011;-88
2022/09/20 07:47:24;;;;;;;2.90;1.10;;;;;;;12.43;87.63;100207.00;6338131;22;20060;-86
2022/09/20 07:49:50;;;;;;;3.72;1.25;;;;;;;12.33;89.18;100197.78;6338509;22;20022;-89
2022/09/20 07:52:16;;;;;;;2.30;1.00;;;;;;;12.43;90.52;100213.34;6309922;22;20003;-89
2022/09/20 07:54:42;;;;;;;2.03;1.15;;;;;;;12.45;90.47;100212.91;6311207;22;20344;-91
2022/09/20 07:57:08;;;;;;;2.80;1.20;;;;;;;12.48;91.88;100201.66;6364863;22;20018;-88
2022/09/20 07:59:33;;;;;;;1.90;1.20;;;;;;;12.53;92.87;100201.09;6362332;22;19999;-78
2022/09/20 08:01:59;;;;;;;2.53;1.30;;;;;;;12.56;92.97;100199.44;6317268;22;20011;-88
2022/09/20 08:04:25;;;;;;;2.38;1.10;;;;;;;12.53;93.63;100211.47;6353597;22;20019;-88
2022/09/20 08:06:51;;;;;;;2.47;1.00;;;;;;;12.59;94.34;100204.09;6346656;22;20015;-89
2022/09/20 08:09:16;;;;;;;2.85;1.35;;;;;;;12.61;93.57;100212.78;6340194;22;20019;-89
2022/09/20 08:11:42;;;;;;;1.33;0.90;;;;;;;12.57;93.76;100209.34;6347619;22;20052;-87
2022/09/20 08:14:11;;;;;;;2.60;1.13;;;;;;;12.60;94.14;100216.78;6348267;22;20113;-88
2022/09/20 08:16:39;;;;;;;1.40;0.82;;;;;;;12.70;92.66;100195.41;6348779;22;20356;-89
2022/09/20 08:19:05;;;;;;;1.25;0.80;;;;;;;12.77;93.58;100201.53;6346103;22;20067;-88
2022/09/20 08:21:32;;;;;;;2.83;0.95;;;;;;;12.82;93.04;100200.94;6259066;22;20041;-77
2022/09/20 08:23:58;;;;;;;1.08;0.95;;;;;;;12.83;92.79;100205.28;6307956;22;20014;-77
2022/09/20 08:26:26;;;;;;;1.13;0.88;;;;;;;12.97;91.43;100201.25;6307730;22;20010;-77
2022/09/20 08:28:53;;;;;;;1.10;1.00;;;;;;;12.99;91.25;100205.13;6307615;22;20042;-77
2022/09/20 08:31:20;;;;;;;1.48;1.05;;;;;;;12.98;90.86;100200.78;6309444;22;20086;-77
2022/09/20 08:33:47;;;;;;;0.98;0.90;;;;;;;13.08;91.26;100205.22;6311324;22;20023;-77
2022/09/20 08:36:18;;;;;;;2.28;1.00;;;;;;;13.14;91.53;100204.69;6338399;22;20007;-77
2022/09/20 08:38:43;;;;;;;1.40;1.10;;;;;;;13.23;90.23;100213.13;6289222;22;20011;-87
2022/09/20 08:41:27;;;;;;;1.70;1.15;;;;;;;13.31;90.87;100214.41;6341864;22;20481;-77
2022/09/20 08:44:06;;;;;;;;;;;;;;;13.63;91.58;100208.50;6339722;22;20011;-77
2022/09/20 08:46:35;;;;;;;1.27;0.93;;;;;;;13.89;87.12;100201.53;6311521;22;19971;-77
2022/09/20 08:49:03;;;;;;;2.40;1.25;;;;;;;14.18;85.02;100208.84;6311051;22;20017;-77
2022/09/20 08:51:33;;;;;;;1.67;0.90;;;;;;;14.60;81.81;100187.63;6285068;22;20010;-77
2022/09/20 08:53:59;;;;;;;3.03;0.98;;;;;;;14.82;79.69;100201.50;6285943;22;20038;-78
2022/09/20 08:56:32;;;;;;;1.45;0.90;;;;;;;14.81;79.77;100197.94;6285484;22;20037;-78
2022/09/20 08:58:59;;;;;;;0.80;0.80;;;;;;;15.20;78.46;100192.72;6311848;22;20413;-89
2022/09/20 09:01:26;;;;;;;1.13;0.80;;;;;;;15.16;78.15;100186.50;6314517;22;20086;-89
2022/09/20 09:03:57;;;;;;;1.27;0.70;;;;;;;15.45;77.18;100200.78;6313021;22;20012;-88
2022/09/20 09:06:24;;;;;;;1.33;0.88;;;;;;;15.67;74.43;100193.03;6340203;22;20011;-88
2022/09/20 09:08:52;;;;;;;2.00;0.90;;;;;;;16.05;73.34;100191.72;6290423;22;20013;-89
2022/09/20 09:11:19;;;;;;;1.48;0.90;;;;;;;16.28;73.00;100182.63;6342973;22;20034;-89
2022/09/20 09:13:52;;;;;;;2.28;0.90;;;;;;;16.45;72.10;100188.63;6339932;22;20019;-90
2022/09/20 09:16:18;;;;;;;;;;;;;;;16.68;71.36;100187.91;6339815;22;20011;-78
2022/09/20 09:18:45;;;;;;;1.38;1.10;;;;;;;16.98;70.33;100186.78;6311213;22;20542;-79
2022/09/20 09:21:17;;;;;;;1.65;0.98;;;;;;;17.48;67.91;100172.97;6310844;22;20033;-78
2022/09/20 09:23:50;;;;;;;1.52;0.80;;;;;;;17.54;67.15;100163.44;6339068;22;20033;-78
2022/09/20 09:26:23;;;;;;;2.97;1.02;;;;;;;17.53;65.51;100177.94;6339025;22;20381;-78
2022/09/20 09:29:13;;;;;;;2.00;0.93;;;;;;;16.80;69.19;100181.28;6338587;22;20011;-78
2022/09/20 09:31:39;;;;;;;1.42;0.85;;;;;;;16.52;70.55;100183.44;6339034;22;20010;-78
2022/09/20 09:34:22;;;;;;;2.08;0.98;;;;;;;16.78;73.00;100176.16;6338701;22;20022;-78
2022/09/20 09:36:47;;;;;;;1.98;1.10;;;;;;;16.87;70.26;100164.13;6338435;22;20014;-88
2022/09/20 09:39:30;;;;;;;1.85;0.93;;;;;;;17.17;70.42;100170.59;6338750;22;20037;-88
2022/09/20 09:41:59;;;;;;;2.45;1.20;;;;;;;17.68;69.78;100164.72;6311645;22;20090;-88
2022/09/20 09:44:32;;;;;;;1.25;0.93;;;;;;;18.16;68.94;100156.84;6309484;22;20022;-88
2022/09/20 09:46:58;;;;;;;1.73;1.00;;;;;;;18.60;66.73;100160.38;6337380;22;20386;-88
2022/09/20 09:49:34;;;;;;;2.80;1.20;;;;;;;18.30;62.60;100158.88;6336693;22;20090;-88
2022/09/20 09:52:23;;;;;;;2.13;1.02;;;;;;;17.66;63.21;100156.81;6310841;22;20006;-89
2022/09/20 09:54:50;;;;;;;2.20;1.20;;;;;;;16.95;66.36;100153.31;6309601;22;20332;-78
2022/09/20 09:57:38;;;;;;;2.38;0.77;;;;;;;16.56;66.63;100166.47;6283775;22;20037;-78
2022/09/20 10:00:15;;;;;;;1.00;0.70;;;;;;;16.61;67.29;100166.63;6336823;22;20434;-78
2022/09/20 10:02:59;;;;;;;1.77;1.25;;;;;;;16.65;70.40;100158.81;6309783;22;20007;-78
2022/09/20 10:05:31;;;;;;;2.10;1.00;;;;;;;16.54;69.87;100152.19;6308652;22;20007;-78
2022/09/20 10:08:38;;;;;;;2.53;0.95;;;;;;;16.81;68.12;100149.22;6337427;22;20014;-79
2022/09/20 10:11:40;;;;;;;1.13;1.00;;;;;;;17.37;67.99;100151.13;6225467;22;20462;-78
2022/09/20 10:14:19;;;;;;;1.92;0.93;;;;;;;17.77;64.92;100138.59;6336549;22;20479;-88
2022/09/20 10:17:12;;;;;;;0.75;0.70;;;;;;;17.74;61.57;100140.34;6309646;22;20011;-78
2022/09/20 10:19:56;;;;;;;3.42;1.00;;;;;;;17.07;62.34;100153.06;6335921;22;20019;-78
2022/09/20 10:22:50;;;;;;;0.75;0.60;;;;;;;16.83;62.41;100146.72;6309143;22;20468;-78
2022/09/20 10:25:19;;;;;;;;;;;;;;;17.24;62.31;100145.00;6336374;22;20128;-78
2022/09/20 10:27:53;;;;;;;1.63;0.98;;;;;;;17.82;60.85;100135.13;6309291;22;19910;-78
2022/09/20 10:30:21;;;;;;;1.48;0.70;;;;;;;18.07;59.17;100134.53;6308516;22;20054;-78
2022/09/20 10:33:14;;;;;;;1.33;0.60;;;;;;;18.59;59.38;100130.75;6309605;22;20015;-88
2022/09/20 10:36:01;;;;;;;2.45;0.90;;;;;;;18.57;57.92;100150.13;6335766;22;20451;-77
2022/09/20 10:38:35;;;;;;;1.40;0.50;;;;;;;18.26;55.71;100143.50;6335921;22;20019;-77
2022/09/20 10:44:25;;;;;;;2.53;0.88;;;;;;;18.11;55.31;100146.34;6312679;22;20018;-78
2022/09/20 10:47:20;;;;;;;2.58;0.75;;;;;;;17.73;58.05;100138.03;6309285;22;20010;-78
2022/09/20 10:50:12;;;;;;;0.95;0.60;;;;;;;17.27;60.42;100152.44;6335613;22;20061;-78
2022/09/20 10:52:44;;;;;;;1.73;0.80;;;;;;;16.90;62.89;100156.81;6336740;22;20021;-87
2022/09/20 10:55:35;;;;;;;1.52;0.63;;;;;;;16.29;63.36;100159.75;6308145;22;20049;-77
2022/09/20 10:58:12;;;;;;;1.25;0.70;;;;;;;15.73;69.14;100157.59;6336564;22;20014;-77
2022/09/20 11:00:43;;;;;;;1.48;0.80;;;;;;;15.69;70.11;100156.97;6335391;22;20024;-77
2022/09/20 11:03:28;;;;;;;1.73;0.82;;;;;;;15.95;72.55;100159.41;6335847;22;20095;-77
2022/09/20 11:06:12;;;;;;;1.63;0.93;;;;;;;15.82;70.84;100148.41;6335432;22;20011;-77
2022/09/20 11:08:39;;;;;;;1.92;0.82;;;;;;;15.84;68.21;100145.94;6335603;22;20054;-77
2022/09/20 11:11:33;;;;;;;1.60;1.10;;;;;;;16.00;67.49;100147.59;6336130;22;20115;-87
2022/09/20 11:14:05;;;;;;;1.02;0.68;;;;;;;15.86;66.54;100141.41;6336194;22;20007;-77
2022/09/20 11:16:46;;;;;;;2.05;0.90;;;;;;;15.77;65.87;100135.81;6307778;22;20086;-77
2022/09/20 11:19:22;;;;;;;1.25;0.80;;;;;;;15.93;64.00;100147.91;6308197;22;20014;-77
2022/09/20 11:22:12;;;;;;;1.17;0.68;;;;;;;15.82;62.79;100143.59;6283264;22;20064;-77
2022/09/20 11:24:42;;;;;;;1.42;0.70;;;;;;;15.93;64.04;100143.09;6308060;22;20045;-77
2022/09/20 11:27:17;;;;;;;0.93;0.70;;;;;;;16.55;66.25;100131.31;6308882;22;20157;-78
2022/09/20 11:29:57;;;;;;;1.45;0.68;;;;;;;17.18;63.42;100116.88;6336201;22;20479;-88
2022/09/20 11:32:33;;;;;;;1.52;0.75;;;;;;;17.59;58.11;100109.47;6336928;22;20018;-86
2022/09/20 11:35:18;;;;;;;3.45;0.80;;;;;;;17.77;57.84;100111.31;6282839;22;20072;-89
2022/09/20 11:37:53;;;;;;;2.95;0.85;;;;;;;18.04;59.74;100104.59;6309506;22;20022;-87
2022/09/20 11:40:21;;;;;;;2.65;0.65;;;;;;;18.20;58.29;100118.13;6308957;22;20459;-88
2022/09/20 11:42:48;;;;;;;1.77;0.90;;;;;;;18.33;55.80;100101.72;6336757;22;20028;-88
2022/09/20 11:45:13;;;;;;;1.95;0.85;;;;;;;18.89;53.35;100103.28;6337195;22;20018;-88
2022/09/20 11:47:42;;;;;;;2.47;0.70;;;;;;;19.22;52.81;100102.88;6336901;22;20336;-88
2022/09/20 11:50:23;;;;;;;1.10;0.63;;;;;;;18.70;53.34;100104.06;6308330;22;20049;-88
2022/09/20 11:53:08;;;;;;;1.80;0.50;;;;;;;18.27;53.17;100109.31;6336059;22;20011;-78
2022/09/20 11:55:37;;;;;;;2.55;0.70;;;;;;;17.76;52.73;100109.00;6308053;22;20019;-77
2022/09/20 11:58:07;;;;;;;1.65;0.85;;;;;;;17.53;53.68;100108.59;6335779;22;20353;-78
2022/09/20 12:00:35;;;;;;;1.02;0.60;;;;;;;17.48;53.46;100117.66;6307726;22;20123;-77
2022/09/20 12:03:02;;;;;;;0.73;0.60;;;;;;;17.22;53.83;100111.84;6307854;22;19998;-78
2022/09/20 12:05:36;;;;;;;2.50;1.00;;;;;;;16.91;55.80;100125.47;6281084;22;20340;-78
2022/09/20 12:08:30;;;;;;;0.98;0.65;;;;;;;16.57;56.78;100123.25;6308770;22;20340;-77
2022/09/20 12:11:07;;;;;;;2.00;0.90;;;;;;;16.50;57.84;100124.31;6307241;22;20348;-88
2022/09/20 12:13:36;;;;;;;1.55;0.85;;;;;;;16.49;58.17;100127.63;6335896;22;20034;-89
2022/09/20 12:16:35;;;;;;;1.40;0.80;;;;;;;16.30;63.59;100121.31;6309049;22;20345;-87
2022/09/20 12:19:04;;;;;;;1.85;0.70;;;;;;;16.06;70.41;100117.69;6257990;22;20340;-89
2022/09/20 12:21:29;;;;;;;2.63;0.93;;;;;;;15.63;73.81;100125.31;6336067;22;20003;-88
2022/09/20 12:23:55;;;;;;;2.97;1.15;;;;;;;15.24;75.49;100115.88;6257713;22;20063;-88